createdAt,value
2022-12-15T00:00:16.705Z,-15.16
2022-12-15T00:03:02.628Z,-15.14
2022-12-15T00:05:50.108Z,-15.12
2022-12-15T00:08:36.596Z,-15.10
2022-12-15T00:11:23.080Z,-15.24
2022-12-15T00:14:08.942Z,-15.13
2022-12-15T00:16:54.559Z,-15.11
2022-12-15T00:19:40.894Z,-15.11
2022-12-15T00:22:26.606Z,-15.07
2022-12-15T00:25:12.456Z,-15.09
2022-12-15T00:27:58.190Z,-15.08
2022-12-15T00:30:43.854Z,-14.97
2022-12-15T00:33:31.042Z,-15.05
2022-12-15T00:36:18.338Z,-14.99
2022-12-15T00:38:46.670Z,-15.07
2022-12-15T00:41:17.147Z,-14.89
2022-12-15T00:43:44.847Z,-14.95
2022-12-15T00:46:31.338Z,-14.91
2022-12-15T00:48:59.031Z,-14.87
2022-12-15T00:51:45.852Z,-14.91
2022-12-15T00:54:32.230Z,-14.97
2022-12-15T00:57:17.842Z,-15.01
2022-12-15T01:00:03.733Z,-15.01
2022-12-15T01:02:50.379Z,-15.03
2022-12-15T01:05:36.382Z,-15.02
2022-12-15T01:08:22.251Z,-15.12
2022-12-15T01:11:08.008Z,-15.07
2022-12-15T01:13:54.150Z,-15.10
2022-12-15T01:16:40.057Z,-15.18
2022-12-15T01:19:27.534Z,-15.08
2022-12-15T01:21:55.144Z,-15.09
2022-12-15T01:24:22.654Z,-15.22
2022-12-15T01:26:50.227Z,-15.21
2022-12-15T01:29:17.838Z,-15.22
2022-12-15T01:31:45.422Z,-15.18
2022-12-15T01:34:20.339Z,-15.22
2022-12-15T01:36:47.835Z,-15.17
2022-12-15T01:39:15.418Z,-15.32
2022-12-15T01:41:42.836Z,-15.19
2022-12-15T01:44:23.105Z,-15.27
2022-12-15T01:46:55.258Z,-15.24
2022-12-15T01:49:28.992Z,-15.36
2022-12-15T01:52:00.189Z,-15.32
2022-12-15T01:54:35.170Z,-15.32
2022-12-15T01:57:20.382Z,-15.44
2022-12-15T01:59:52.756Z,-15.47
2022-12-15T02:02:25.035Z,-15.38
2022-12-15T02:04:54.591Z,-15.37
2022-12-15T02:07:22.240Z,-15.48
2022-12-15T02:09:53.311Z,-15.41
2022-12-15T02:12:32.861Z,-15.43
2022-12-15T02:15:09.740Z,-15.47
2022-12-15T02:18:09.473Z,-15.54
2022-12-15T02:20:55.330Z,-15.48
2022-12-15T02:23:35.166Z,-15.55
2022-12-15T02:26:08.758Z,-15.48
2022-12-15T02:28:58.043Z,-15.49
2022-12-15T02:31:50.734Z,-15.48
2022-12-15T02:34:27.213Z,-15.55
2022-12-15T02:37:29.645Z,-15.49
2022-12-15T02:39:57.165Z,-15.55
2022-12-15T02:42:27.136Z,-15.51
2022-12-15T02:45:04.465Z,-15.57
2022-12-15T02:47:57.364Z,-15.46
2022-12-15T02:50:36.044Z,-15.41
2022-12-15T02:53:33.696Z,-15.50
2022-12-15T02:56:12.809Z,-15.55
2022-12-15T02:59:19.454Z,-15.51
2022-12-15T03:02:01.203Z,-15.68
2022-12-15T03:04:29.475Z,-15.65
2022-12-15T03:07:01.243Z,-15.60
2022-12-15T03:09:29.321Z,-15.61
2022-12-15T03:11:57.021Z,-15.62
2022-12-15T03:14:27.639Z,-15.66
2022-12-15T03:16:56.110Z,-15.45
2022-12-15T03:19:24.108Z,-15.53
2022-12-15T03:21:51.833Z,-15.54
2022-12-15T03:24:19.848Z,-15.54
2022-12-15T03:26:50.335Z,-15.66
2022-12-15T03:29:18.706Z,-15.71
2022-12-15T03:31:46.331Z,-15.64
2022-12-15T03:34:17.605Z,-15.57
2022-12-15T03:36:45.120Z,-15.52
2022-12-15T03:39:12.798Z,-15.52
2022-12-15T03:41:41.906Z,-15.59
2022-12-15T03:44:09.545Z,-15.62
2022-12-15T03:46:37.015Z,-15.66
2022-12-15T03:49:04.565Z,-15.68
2022-12-15T03:51:32.062Z,-15.70
2022-12-15T03:53:59.530Z,-15.79
2022-12-15T03:56:27.075Z,-15.79
2022-12-15T03:58:54.553Z,-15.75
2022-12-15T04:01:22.105Z,-15.63
2022-12-15T04:03:49.785Z,-15.76
2022-12-15T04:06:17.490Z,-15.74
2022-12-15T04:08:44.964Z,-15.65
2022-12-15T04:11:18.450Z,-15.74
2022-12-15T04:13:46.213Z,-15.53
2022-12-15T04:16:19.340Z,-15.68
2022-12-15T04:19:07.983Z,-15.78
2022-12-15T04:21:35.546Z,-15.77
2022-12-15T04:24:21.332Z,-15.73
2022-12-15T04:27:07.072Z,-15.78
2022-12-15T04:29:52.913Z,-15.80
2022-12-15T04:32:38.779Z,-15.77
2022-12-15T04:35:24.976Z,-15.66
2022-12-15T04:38:10.912Z,-15.83
2022-12-15T04:40:57.170Z,-15.59
2022-12-15T04:43:43.923Z,-15.37
2022-12-15T04:46:29.711Z,-15.23
2022-12-15T04:49:15.689Z,-14.91
2022-12-15T04:52:01.660Z,-14.62
2022-12-15T04:54:47.725Z,-14.32
2022-12-15T04:57:33.560Z,-13.98
2022-12-15T05:00:19.257Z,-13.63
2022-12-15T05:03:06.759Z,-13.19
2022-12-15T05:05:52.544Z,-12.80
2022-12-15T05:08:38.353Z,-12.45
2022-12-15T05:11:24.569Z,-12.10
2022-12-15T05:14:10.340Z,-11.74
2022-12-15T05:16:56.197Z,-11.44
2022-12-15T05:19:42.251Z,-10.99
2022-12-15T05:22:28.224Z,-10.60
2022-12-15T05:25:14.129Z,-10.33
2022-12-15T05:27:59.856Z,-10.08
2022-12-15T05:30:45.634Z,-9.81
2022-12-15T05:33:13.148Z,-9.40
2022-12-15T05:35:40.749Z,-9.16
2022-12-15T05:38:08.304Z,-8.83
2022-12-15T05:40:35.894Z,-8.46
2022-12-15T05:43:03.617Z,-8.29
2022-12-15T05:45:31.101Z,-8.21
2022-12-15T05:47:58.604Z,-7.85
2022-12-15T05:50:26.197Z,-7.59
2022-12-15T05:52:54.487Z,-7.43
2022-12-15T05:55:21.981Z,-7.15
2022-12-15T05:57:54.131Z,-7.13
2022-12-15T06:00:22.168Z,-7.03
2022-12-15T06:02:50.227Z,-6.68
2022-12-15T06:05:18.075Z,-6.21
2022-12-15T06:07:45.827Z,-6.16
2022-12-15T06:10:13.358Z,-7.11
2022-12-15T06:12:41.127Z,-8.07
2022-12-15T06:15:09.076Z,-8.71
2022-12-15T06:17:36.754Z,-9.17
2022-12-15T06:20:04.889Z,-9.52
2022-12-15T06:22:32.525Z,-9.85
2022-12-15T06:25:00.073Z,-10.39
2022-12-15T06:27:27.602Z,-10.45
2022-12-15T06:29:55.053Z,-10.76
2022-12-15T06:32:22.619Z,-10.92
2022-12-15T06:34:50.299Z,-11.25
2022-12-15T06:37:17.698Z,-11.39
2022-12-15T06:39:45.259Z,-11.63
2022-12-15T06:42:14.887Z,-11.78
2022-12-15T06:44:42.445Z,-11.72
2022-12-15T06:47:10.049Z,-11.71
2022-12-15T06:49:37.722Z,-11.62
2022-12-15T06:52:05.342Z,-11.74
2022-12-15T06:54:32.839Z,-11.88
2022-12-15T06:57:00.361Z,-12.05
2022-12-15T06:59:27.848Z,-12.06
2022-12-15T07:01:55.473Z,-12.19
2022-12-15T07:04:23.149Z,-12.18
2022-12-15T07:06:50.613Z,-12.20
2022-12-15T07:09:18.425Z,-12.20
2022-12-15T07:11:46.770Z,-12.16
2022-12-15T07:14:14.315Z,-12.26
2022-12-15T07:16:41.918Z,-12.21
2022-12-15T07:19:12.825Z,-12.11
2022-12-15T07:21:41.420Z,-12.09
2022-12-15T07:24:11.888Z,-12.12
2022-12-15T07:26:40.120Z,-12.08
2022-12-15T07:29:07.666Z,-12.15
2022-12-15T07:31:35.099Z,-12.06
2022-12-15T07:34:02.692Z,-12.27
2022-12-15T07:36:30.208Z,-12.20
2022-12-15T07:39:01.226Z,-12.07
2022-12-15T07:41:30.344Z,-12.23
2022-12-15T07:43:58.883Z,-12.13
2022-12-15T07:46:27.647Z,-12.03
2022-12-15T07:48:55.272Z,-12.00
2022-12-15T07:51:23.555Z,-11.97
2022-12-15T07:53:51.473Z,-11.97
2022-12-15T07:56:20.542Z,-11.95
2022-12-15T07:58:48.266Z,-11.83
2022-12-15T08:01:16.640Z,-11.73
2022-12-15T08:03:45.474Z,-11.72
2022-12-15T08:06:14.851Z,-11.73
2022-12-15T08:08:50.304Z,-11.69
2022-12-15T08:11:21.402Z,-11.68
2022-12-15T08:14:02.538Z,-11.48
2022-12-15T08:16:30.757Z,-11.51
2022-12-15T08:18:58.413Z,-11.43
2022-12-15T08:21:26.138Z,-11.37
2022-12-15T08:23:53.771Z,-11.34
2022-12-15T08:26:25.272Z,-11.21
2022-12-15T08:29:11.733Z,-11.20
2022-12-15T08:31:45.545Z,-11.04
2022-12-15T08:34:14.603Z,-11.10
2022-12-15T08:36:42.317Z,-11.07
2022-12-15T08:39:10.038Z,-11.04
2022-12-15T08:41:37.610Z,-10.98
2022-12-15T08:44:05.275Z,-11.07
2022-12-15T08:46:34.582Z,-11.10
2022-12-15T08:49:03.558Z,-11.10
2022-12-15T08:51:32.985Z,-11.08
2022-12-15T08:54:01.525Z,-11.02
2022-12-15T08:56:29.872Z,-11.02
2022-12-15T08:59:00.050Z,-10.94
2022-12-15T09:01:29.363Z,-10.89
2022-12-15T09:03:58.163Z,-10.86
2022-12-15T09:06:33.277Z,-10.77
2022-12-15T09:09:03.340Z,-10.75
2022-12-15T09:11:31.967Z,-10.69
2022-12-15T09:13:59.672Z,-10.64
2022-12-15T09:16:28.227Z,-10.50
2022-12-15T09:18:59.195Z,-10.44
2022-12-15T09:21:32.320Z,-10.45
2022-12-15T09:24:02.158Z,-10.43
2022-12-15T09:26:32.019Z,-10.40
2022-12-15T09:29:00.480Z,-10.51
2022-12-15T09:31:30.624Z,-10.41
2022-12-15T09:33:59.741Z,-10.35
2022-12-15T09:36:28.006Z,-10.29
2022-12-15T09:38:57.440Z,-10.39
2022-12-15T09:41:27.560Z,-10.44
2022-12-15T09:43:58.780Z,-10.40
2022-12-15T09:46:44.702Z,-10.51
2022-12-15T09:49:44.403Z,-10.43
2022-12-15T09:52:18.768Z,-10.52
2022-12-15T09:54:46.799Z,-10.49
2022-12-15T09:57:48.263Z,-10.47
2022-12-15T10:00:31.451Z,-10.79
2022-12-15T10:03:08.174Z,-10.45
2022-12-15T10:06:14.216Z,-10.59
2022-12-15T10:08:37.060Z,-10.86
2022-12-15T10:11:24.102Z,-10.97
2022-12-15T10:14:22.100Z,-10.95
2022-12-15T10:17:03.005Z,-11.01
2022-12-15T10:20:18.098Z,-10.98
2022-12-15T10:22:46.453Z,-10.93
2022-12-15T10:25:30.416Z,-11.04
2022-12-15T10:28:45.156Z,-10.99
2022-12-15T10:31:43.765Z,-10.98
2022-12-15T10:34:24.228Z,-11.02
2022-12-15T10:36:53.350Z,-11.17
2022-12-15T10:39:22.262Z,-11.24
2022-12-15T10:42:15.222Z,-11.34
2022-12-15T10:44:50.531Z,-11.48
2022-12-15T10:47:28.979Z,-11.50
2022-12-15T10:50:24.307Z,-11.51
2022-12-15T10:52:52.595Z,-11.56
2022-12-15T10:55:40.579Z,-11.37
2022-12-15T10:58:21.076Z,-11.37
2022-12-15T11:01:04.966Z,-11.39
2022-12-15T11:03:37.774Z,-11.46
2022-12-15T11:06:16.432Z,-11.49
2022-12-15T11:08:44.983Z,-11.46
2022-12-15T11:11:50.761Z,-11.61
2022-12-15T11:14:27.276Z,-11.59
2022-12-15T11:16:57.682Z,-11.63
2022-12-15T11:19:32.048Z,-11.70
2022-12-15T11:22:13.044Z,-11.76
2022-12-15T11:24:50.468Z,-12.09
2022-12-15T11:27:32.318Z,-12.18
2022-12-15T11:30:05.718Z,-12.43
2022-12-15T11:32:35.665Z,-12.55
2022-12-15T11:35:03.520Z,-12.61
2022-12-15T11:37:42.083Z,-12.68
2022-12-15T11:40:41.129Z,-12.71
2022-12-15T11:43:27.213Z,-12.97
2022-12-15T11:46:17.611Z,-13.06
2022-12-15T11:49:26.935Z,-13.07
2022-12-15T11:52:06.666Z,-13.13
2022-12-15T11:54:54.187Z,-13.19
2022-12-15T11:57:36.769Z,-13.18
2022-12-15T12:00:21.876Z,-13.25
2022-12-15T12:02:49.532Z,-13.23
2022-12-15T12:06:00.909Z,-13.33
2022-12-15T12:08:47.460Z,-13.31
2022-12-15T12:11:43.473Z,-13.43
2022-12-15T12:14:23.153Z,-13.45
2022-12-15T12:17:06.669Z,-13.53
2022-12-15T12:19:44.451Z,-13.63
2022-12-15T12:22:24.321Z,-13.67
2022-12-15T12:25:11.267Z,-13.61
2022-12-15T12:27:48.759Z,-13.72
2022-12-15T12:30:24.425Z,-13.90
2022-12-15T12:33:03.669Z,-14.03
2022-12-15T12:35:41.626Z,-14.15
2022-12-15T12:38:14.015Z,-14.14
2022-12-15T12:40:41.529Z,-14.06
2022-12-15T12:43:14.142Z,-14.06
2022-12-15T12:46:23.529Z,-14.17
2022-12-15T12:49:12.831Z,-14.25
2022-12-15T12:51:42.394Z,-14.48
2022-12-15T12:54:31.656Z,-14.59
2022-12-15T12:56:59.278Z,-14.68
2022-12-15T12:59:29.833Z,-14.65
2022-12-15T13:01:58.515Z,-14.62
2022-12-15T13:04:29.095Z,-14.75
2022-12-15T13:06:58.671Z,-14.73
2022-12-15T13:09:43.491Z,-14.67
2022-12-15T13:12:50.700Z,-14.78
2022-12-15T13:15:29.144Z,-14.90
2022-12-15T13:18:17.417Z,-14.97
2022-12-15T13:20:50.541Z,-15.03
2022-12-15T13:23:36.836Z,-15.04
2022-12-15T13:26:12.847Z,-15.04
2022-12-15T13:28:45.572Z,-15.59
2022-12-15T13:31:22.391Z,-15.32
2022-12-15T13:33:50.096Z,-15.27
2022-12-15T13:36:42.293Z,-15.32
2022-12-15T13:39:12.770Z,-15.22
2022-12-15T13:44:52.069Z,-15.51
2022-12-15T13:47:19.527Z,-15.39
2022-12-15T13:55:46.553Z,-15.66
2022-12-15T13:58:21.347Z,-15.63
2022-12-15T14:00:52.316Z,-15.74
2022-12-15T14:03:20.440Z,-15.75
2022-12-15T14:05:54.303Z,-15.75
2022-12-15T14:08:24.415Z,-15.72
2022-12-15T14:10:56.351Z,-15.76
2022-12-15T14:13:31.600Z,-15.65
2022-12-15T14:16:05.203Z,-15.90
2022-12-15T14:18:35.422Z,-16.08
2022-12-15T14:21:08.626Z,-15.92
2022-12-15T14:23:52.512Z,-16.01
2022-12-15T14:26:32.019Z,-16.21
2022-12-15T14:29:06.414Z,-16.18
2022-12-15T14:31:34.220Z,-16.18
2022-12-15T14:34:11.263Z,-16.17
2022-12-15T14:36:41.662Z,-16.20
2022-12-15T14:39:29.843Z,-16.04
2022-12-15T14:41:59.344Z,-16.13
2022-12-15T14:44:38.159Z,-16.17
2022-12-15T14:47:17.255Z,-16.30
2022-12-15T14:49:46.551Z,-16.17
2022-12-15T14:52:38.439Z,-16.14
2022-12-15T14:55:37.144Z,-16.19
2022-12-15T14:58:32.513Z,-16.00
2022-12-15T15:01:01.697Z,-16.06
2022-12-15T15:03:16.563Z,-15.59
2022-12-15T15:03:38.559Z,-16.10
2022-12-15T15:06:12.205Z,-16.02
2022-12-15T15:08:46.652Z,-15.99
2022-12-15T15:11:37.861Z,-15.96
2022-12-15T15:14:12.660Z,-16.19
2022-12-15T15:16:40.920Z,-16.08
2022-12-15T15:19:15.583Z,-16.06
2022-12-15T15:21:43.214Z,-16.09
2022-12-15T15:24:11.049Z,-16.06
2022-12-15T15:26:40.414Z,-16.21
2022-12-15T15:29:32.776Z,-16.21
2022-12-15T15:32:17.955Z,-16.27
2022-12-15T15:34:47.263Z,-16.36
2022-12-15T15:37:18.250Z,-16.34
2022-12-15T15:39:48.776Z,-16.35
2022-12-15T15:42:16.609Z,-16.40
2022-12-15T15:44:44.233Z,-16.34
2022-12-15T15:47:32.072Z,-16.36
2022-12-15T15:50:00.748Z,-16.29
2022-12-15T15:52:32.154Z,-16.30
2022-12-15T15:54:59.959Z,-16.28
2022-12-15T15:57:27.582Z,-16.29
2022-12-15T15:59:55.186Z,-16.23
2022-12-15T16:02:22.836Z,-16.32
2022-12-15T16:04:51.075Z,-16.34
2022-12-15T16:07:25.981Z,-16.29
2022-12-15T16:09:54.538Z,-16.31
2022-12-15T16:12:30.223Z,-16.06
2022-12-15T16:14:57.939Z,-16.05
2022-12-15T16:17:25.754Z,-16.03
2022-12-15T16:19:53.301Z,-15.96
2022-12-15T16:22:22.736Z,-15.86
2022-12-15T16:24:50.366Z,-15.88
2022-12-15T16:27:18.193Z,-15.90
2022-12-15T16:29:46.122Z,-15.84
2022-12-15T16:32:13.594Z,-15.84
2022-12-15T16:34:42.273Z,-15.79
2022-12-15T16:37:40.388Z,-15.75
2022-12-15T16:40:16.949Z,-15.72
2022-12-15T16:42:48.191Z,-15.54
2022-12-15T16:45:18.350Z,-15.61
2022-12-15T16:47:46.750Z,-15.72
2022-12-15T16:50:16.539Z,-15.67
2022-12-15T16:52:47.780Z,-15.72
2022-12-15T16:55:25.405Z,-15.65
2022-12-15T16:58:03.801Z,-15.66
2022-12-15T17:00:36.002Z,-15.57
2022-12-15T17:03:04.168Z,-15.57
2022-12-15T17:05:34.546Z,-15.63
2022-12-15T17:08:08.770Z,-15.65
2022-12-15T17:10:36.793Z,-15.68
2022-12-15T17:13:39.183Z,-15.69
2022-12-15T17:16:14.709Z,-15.75
2022-12-15T17:18:45.729Z,-15.73
2022-12-15T17:21:26.921Z,-15.69
2022-12-15T17:24:00.798Z,-15.68
2022-12-15T17:26:31.149Z,-16.04
2022-12-15T17:29:08.052Z,-15.89
2022-12-15T17:31:37.669Z,-15.77
2022-12-15T17:34:28.053Z,-15.71
2022-12-15T17:37:00.317Z,-15.68
2022-12-15T17:39:28.684Z,-15.92
2022-12-15T17:42:00.973Z,-15.63
2022-12-15T17:44:37.351Z,-15.34
2022-12-15T17:47:07.610Z,-15.39
2022-12-15T17:49:38.663Z,-15.37
2022-12-15T17:52:34.742Z,-15.16
2022-12-15T17:55:08.344Z,-15.02
2022-12-15T17:57:35.877Z,-14.86
2022-12-15T18:00:06.607Z,-14.63
2022-12-15T18:02:34.193Z,-14.54
2022-12-15T18:05:02.037Z,-14.22
2022-12-15T18:07:31.170Z,-14.02
2022-12-15T18:09:58.730Z,-13.81
2022-12-15T18:12:27.487Z,-13.65
2022-12-15T18:14:56.488Z,-13.41
2022-12-15T18:17:24.750Z,-13.29
2022-12-15T18:19:52.285Z,-13.35
2022-12-15T18:22:24.724Z,-13.04
2022-12-15T18:24:53.920Z,-12.98
2022-12-15T18:27:27.389Z,-12.84
2022-12-15T18:29:55.468Z,-12.85
2022-12-15T18:32:25.781Z,-12.99
2022-12-15T18:34:54.365Z,-13.07
2022-12-15T18:37:24.093Z,-13.06
2022-12-15T18:39:52.093Z,-13.09
2022-12-15T18:42:21.426Z,-13.10
2022-12-15T18:44:51.991Z,-12.92
2022-12-15T18:47:22.593Z,-12.79
2022-12-15T18:49:50.444Z,-12.65
2022-12-15T18:52:28.705Z,-12.53
2022-12-15T18:54:59.119Z,-12.47
2022-12-15T18:57:32.804Z,-12.34
2022-12-15T19:00:01.969Z,-12.21
2022-12-15T19:02:30.460Z,-12.34
2022-12-15T19:04:58.017Z,-12.58
2022-12-15T19:07:25.686Z,-12.49
2022-12-15T19:09:53.767Z,-12.48
2022-12-15T19:12:21.402Z,-12.44
2022-12-15T19:14:51.695Z,-12.41
2022-12-15T19:17:40.663Z,-12.25
2022-12-15T19:20:38.547Z,-12.10
2022-12-15T19:23:07.253Z,-11.96
2022-12-15T19:25:35.698Z,-11.96
2022-12-15T19:28:03.181Z,-12.02
2022-12-15T19:30:41.606Z,-11.82
2022-12-15T19:33:11.693Z,-11.70
2022-12-15T19:35:41.409Z,-11.62
2022-12-15T19:38:19.796Z,-11.55
2022-12-15T19:40:47.999Z,-11.47
2022-12-15T19:43:18.418Z,-11.47
2022-12-15T19:45:46.868Z,-11.47
2022-12-15T19:48:17.561Z,-11.40
2022-12-15T19:50:50.336Z,-11.28
2022-12-15T19:53:24.361Z,-11.09
2022-12-15T19:55:57.754Z,-10.96
2022-12-15T19:58:29.498Z,-11.04
2022-12-15T20:00:59.652Z,-10.98
2022-12-15T20:03:28.419Z,-11.11
2022-12-15T20:05:57.776Z,-10.82
2022-12-15T20:08:29.147Z,-10.74
2022-12-15T20:10:57.182Z,-10.68
2022-12-15T20:13:26.717Z,-10.51
2022-12-15T20:15:54.987Z,-10.48
2022-12-15T20:18:22.819Z,-10.43
2022-12-15T20:20:50.843Z,-10.43
2022-12-15T20:23:29.659Z,-10.31
2022-12-15T20:25:57.977Z,-10.30
2022-12-15T20:28:30.155Z,-10.20
2022-12-15T20:30:58.518Z,-10.10
2022-12-15T20:33:26.093Z,-10.07
2022-12-15T20:35:55.068Z,-10.04
2022-12-15T20:38:31.880Z,-10.02
2022-12-15T20:41:01.410Z,-10.16
2022-12-15T20:43:32.020Z,-10.22
2022-12-15T20:46:12.564Z,-10.21
2022-12-15T20:48:40.546Z,-10.25
2022-12-15T20:51:12.483Z,-10.29
2022-12-15T20:53:39.957Z,-10.36
2022-12-15T20:56:07.891Z,-10.33
2022-12-15T20:58:41.571Z,-10.27
2022-12-15T21:01:22.122Z,-10.14
2022-12-15T21:03:52.133Z,-10.03
2022-12-15T21:06:20.121Z,-9.95
2022-12-15T21:08:47.963Z,-9.84
2022-12-15T21:11:19.278Z,-9.72
2022-12-15T21:13:49.389Z,-9.69
2022-12-15T21:16:22.751Z,-9.46
2022-12-15T21:19:18.517Z,-9.34
2022-12-15T21:21:43.431Z,-9.33
2022-12-15T21:24:20.061Z,-9.01
2022-12-15T21:26:47.637Z,-8.90
2022-12-15T21:29:21.133Z,-8.75
2022-12-15T21:31:48.826Z,-8.74
2022-12-15T21:34:16.762Z,-8.58
2022-12-15T21:36:47.855Z,-8.51
2022-12-15T21:39:24.293Z,-8.39
2022-12-15T21:41:51.959Z,-8.27
2022-12-15T21:44:19.417Z,-8.27
2022-12-15T21:46:47.208Z,-8.16
2022-12-15T21:49:15.858Z,-8.05
2022-12-15T21:51:47.444Z,-7.97
2022-12-15T21:54:21.511Z,-7.90
2022-12-15T21:56:51.520Z,-7.82
2022-12-15T21:59:25.293Z,-7.67
2022-12-15T22:01:55.055Z,-7.57
2022-12-15T22:04:49.508Z,-7.39
2022-12-15T22:07:19.723Z,-7.36
2022-12-15T22:09:47.194Z,-7.33
2022-12-15T22:12:24.481Z,-7.19
2022-12-15T22:14:52.286Z,-7.18
2022-12-15T22:17:21.967Z,-7.08
2022-12-15T22:19:49.676Z,-7.22
2022-12-15T22:22:17.288Z,-7.02
2022-12-15T22:24:45.036Z,-7.05
2022-12-15T22:27:22.995Z,-6.92
2022-12-15T22:29:50.935Z,-6.96
2022-12-15T22:32:18.462Z,-7.13
2022-12-15T22:34:46.036Z,-6.92
2022-12-15T22:37:13.636Z,-6.86
2022-12-15T22:39:41.142Z,-6.89
2022-12-15T22:42:16.320Z,-6.84
2022-12-15T22:44:44.809Z,-6.86
2022-12-15T22:47:12.361Z,-6.89
2022-12-15T22:49:41.523Z,-6.86
2022-12-15T22:52:21.792Z,-6.78
2022-12-15T22:54:49.346Z,-6.84
2022-12-15T22:57:28.953Z,-6.86
2022-12-15T23:00:03.173Z,-6.76
2022-12-15T23:02:43.356Z,-6.79
2022-12-15T23:05:14.059Z,-6.79
2022-12-15T23:07:42.048Z,-6.86
2022-12-15T23:10:29.943Z,-6.77
2022-12-15T23:12:57.381Z,-6.76
2022-12-15T23:15:45.699Z,-6.74
2022-12-15T23:18:13.957Z,-6.74
2022-12-15T23:20:42.364Z,-6.76
2022-12-15T23:23:10.216Z,-6.79
2022-12-15T23:25:38.189Z,-6.82
2022-12-15T23:28:05.691Z,-6.81
2022-12-15T23:30:33.186Z,-6.86
2022-12-15T23:33:00.702Z,-6.86
2022-12-15T23:35:28.158Z,-6.83
2022-12-15T23:37:55.938Z,-6.94
2022-12-15T23:40:23.492Z,-6.99
2022-12-15T23:42:51.421Z,-6.93
2022-12-15T23:45:20.082Z,-6.95
2022-12-15T23:47:47.591Z,-6.92
2022-12-15T23:50:15.134Z,-6.96
2022-12-15T23:52:42.663Z,-7.00
2022-12-15T23:55:10.429Z,-7.01
2022-12-15T23:57:38.966Z,-7.01
